sensor_id;sensor_type;location;lat;lon;timestamp;temperature;humidity
18225;DHT22;9237;48.590;8.854;2022-07-06T00:02:19;15.90;99.30
18225;DHT22;9237;48.590;8.854;2022-07-06T00:04:48;15.90;99.30
18225;DHT22;9237;48.590;8.854;2022-07-06T00:07:14;15.80;99.30
18225;DHT22;9237;48.590;8.854;2022-07-06T00:09:41;15.90;99.40
18225;DHT22;9237;48.590;8.854;2022-07-06T00:12:09;15.90;99.30
18225;DHT22;9237;48.590;8.854;2022-07-06T00:14:36;15.80;99.40
18225;DHT22;9237;48.590;8.854;2022-07-06T00:17:03;15.80;99.50
18225;DHT22;9237;48.590;8.854;2022-07-06T00:19:30;15.70;99.60
18225;DHT22;9237;48.590;8.854;2022-07-06T00:21:58;15.70;99.70
18225;DHT22;9237;48.590;8.854;2022-07-06T00:24:25;15.70;99.90
18225;DHT22;9237;48.590;8.854;2022-07-06T00:26:52;15.70;99.80
18225;DHT22;9237;48.590;8.854;2022-07-06T00:29:19;15.70;99.70
18225;DHT22;9237;48.590;8.854;2022-07-06T00:31:45;15.60;99.80
18225;DHT22;9237;48.590;8.854;2022-07-06T00:34:12;15.60;99.90
18225;DHT22;9237;48.590;8.854;2022-07-06T00:36:39;15.70;99.80
18225;DHT22;9237;48.590;8.854;2022-07-06T00:39:07;15.70;99.80
18225;DHT22;9237;48.590;8.854;2022-07-06T00:41:34;15.60;99.80
18225;DHT22;9237;48.590;8.854;2022-07-06T00:44:07;15.60;99.90
18225;DHT22;9237;48.590;8.854;2022-07-06T00:46:34;13.80;99.50
18225;DHT22;9237;48.590;8.854;2022-07-06T00:49:01;15.50;99.90
18225;DHT22;9237;48.590;8.854;2022-07-06T00:51:30;15.50;99.90
18225;DHT22;9237;48.590;8.854;2022-07-06T00:53:59;15.40;99.90
18225;DHT22;9237;48.590;8.854;2022-07-06T00:56:29;15.40;99.90
18225;DHT22;9237;48.590;8.854;2022-07-06T00:58:57;15.40;99.90
18225;DHT22;9237;48.590;8.854;2022-07-06T01:01:24;15.30;99.90
18225;DHT22;9237;48.590;8.854;2022-07-06T01:03:51;15.30;99.90
18225;DHT22;9237;48.590;8.854;2022-07-06T01:06:18;15.30;99.90
18225;DHT22;9237;48.590;8.854;2022-07-06T01:08:46;15.20;99.90
18225;DHT22;9237;48.590;8.854;2022-07-06T01:11:13;15.10;99.90
18225;DHT22;9237;48.590;8.854;2022-07-06T01:13:41;15.10;99.90
18225;DHT22;9237;48.590;8.854;2022-07-06T01:16:08;15.20;99.90
18225;DHT22;9237;48.590;8.854;2022-07-06T01:18:36;15.00;99.90
18225;DHT22;9237;48.590;8.854;2022-07-06T01:21:10;14.90;99.90
18225;DHT22;9237;48.590;8.854;2022-07-06T01:23:40;14.90;99.90
18225;DHT22;9237;48.590;8.854;2022-07-06T01:26:10;14.80;99.90
18225;DHT22;9237;48.590;8.854;2022-07-06T01:28:36;14.80;99.90
18225;DHT22;9237;48.590;8.854;2022-07-06T01:31:03;14.80;99.90
18225;DHT22;9237;48.590;8.854;2022-07-06T01:33:31;14.80;99.90
18225;DHT22;9237;48.590;8.854;2022-07-06T01:35:58;14.90;99.90
18225;DHT22;9237;48.590;8.854;2022-07-06T01:38:26;14.90;99.90
18225;DHT22;9237;48.590;8.854;2022-07-06T01:40:53;15.10;99.90
18225;DHT22;9237;48.590;8.854;2022-07-06T01:43:20;14.90;99.90
18225;DHT22;9237;48.590;8.854;2022-07-06T01:45:46;14.90;99.90
18225;DHT22;9237;48.590;8.854;2022-07-06T01:48:13;14.80;99.90
18225;DHT22;9237;48.590;8.854;2022-07-06T01:50:40;14.80;99.90
18225;DHT22;9237;48.590;8.854;2022-07-06T01:53:07;14.70;99.90
18225;DHT22;9237;48.590;8.854;2022-07-06T01:55:35;14.70;99.90
18225;DHT22;9237;48.590;8.854;2022-07-06T01:58:02;14.60;99.90
18225;DHT22;9237;48.590;8.854;2022-07-06T02:00:29;14.50;99.90
18225;DHT22;9237;48.590;8.854;2022-07-06T02:02:56;14.50;99.90
18225;DHT22;9237;48.590;8.854;2022-07-06T02:05:23;14.50;99.90
18225;DHT22;9237;48.590;8.854;2022-07-06T02:07:49;14.40;99.90
18225;DHT22;9237;48.590;8.854;2022-07-06T02:10:16;14.40;99.90
18225;DHT22;9237;48.590;8.854;2022-07-06T02:12:45;14.40;99.90
18225;DHT22;9237;48.590;8.854;2022-07-06T02:15:12;14.20;99.90
18225;DHT22;9237;48.590;8.854;2022-07-06T02:17:38;14.00;99.90
18225;DHT22;9237;48.590;8.854;2022-07-06T02:20:06;13.90;99.90
18225;DHT22;9237;48.590;8.854;2022-07-06T02:22:33;13.60;99.90
18225;DHT22;9237;48.590;8.854;2022-07-06T02:25:01;13.60;99.90
18225;DHT22;9237;48.590;8.854;2022-07-06T02:27:28;13.50;99.90
18225;DHT22;9237;48.590;8.854;2022-07-06T02:29:56;13.50;99.90
18225;DHT22;9237;48.590;8.854;2022-07-06T02:32:23;13.60;99.90
18225;DHT22;9237;48.590;8.854;2022-07-06T02:34:50;13.70;99.90
18225;DHT22;9237;48.590;8.854;2022-07-06T02:37:18;13.80;99.90
18225;DHT22;9237;48.590;8.854;2022-07-06T02:39:45;13.70;99.90
18225;DHT22;9237;48.590;8.854;2022-07-06T02:42:11;13.70;99.90
18225;DHT22;9237;48.590;8.854;2022-07-06T02:44:38;13.60;99.90
18225;DHT22;9237;48.590;8.854;2022-07-06T02:47:06;13.60;99.90
18225;DHT22;9237;48.590;8.854;2022-07-06T02:49:33;13.60;99.90
18225;DHT22;9237;48.590;8.854;2022-07-06T02:52:00;13.60;99.90
18225;DHT22;9237;48.590;8.854;2022-07-06T02:54:27;13.60;99.90
18225;DHT22;9237;48.590;8.854;2022-07-06T02:56:54;13.60;99.90
18225;DHT22;9237;48.590;8.854;2022-07-06T02:59:21;13.60;99.90
18225;DHT22;9237;48.590;8.854;2022-07-06T03:01:48;13.50;99.90
18225;DHT22;9237;48.590;8.854;2022-07-06T03:04:16;13.50;99.90
18225;DHT22;9237;48.590;8.854;2022-07-06T03:06:43;13.40;99.90
18225;DHT22;9237;48.590;8.854;2022-07-06T03:09:09;13.30;99.90
18225;DHT22;9237;48.590;8.854;2022-07-06T03:11:36;13.20;99.90
18225;DHT22;9237;48.590;8.854;2022-07-06T03:14:03;13.10;99.90
18225;DHT22;9237;48.590;8.854;2022-07-06T03:16:30;13.00;99.90
18225;DHT22;9237;48.590;8.854;2022-07-06T03:18:57;13.10;99.90
18225;DHT22;9237;48.590;8.854;2022-07-06T03:21:26;13.00;99.90
18225;DHT22;9237;48.590;8.854;2022-07-06T03:23:53;13.10;99.90
18225;DHT22;9237;48.590;8.854;2022-07-06T03:26:19;13.10;99.90
18225;DHT22;9237;48.590;8.854;2022-07-06T03:28:46;13.10;99.90
18225;DHT22;9237;48.590;8.854;2022-07-06T03:31:13;13.20;99.90
18225;DHT22;9237;48.590;8.854;2022-07-06T03:33:40;13.30;99.90
18225;DHT22;9237;48.590;8.854;2022-07-06T03:36:07;13.10;99.90
18225;DHT22;9237;48.590;8.854;2022-07-06T03:38:36;13.20;99.90
18225;DHT22;9237;48.590;8.854;2022-07-06T03:41:03;13.20;99.90
18225;DHT22;9237;48.590;8.854;2022-07-06T03:43:30;13.20;99.90
18225;DHT22;9237;48.590;8.854;2022-07-06T03:45:57;13.20;99.90
18225;DHT22;9237;48.590;8.854;2022-07-06T03:48:24;13.20;99.90
18225;DHT22;9237;48.590;8.854;2022-07-06T03:50:51;13.20;99.90
18225;DHT22;9237;48.590;8.854;2022-07-06T03:53:18;13.30;99.90
18225;DHT22;9237;48.590;8.854;2022-07-06T03:55:46;13.40;99.90
18225;DHT22;9237;48.590;8.854;2022-07-06T03:58:33;13.50;99.90
18225;DHT22;9237;48.590;8.854;2022-07-06T04:01:03;13.60;99.90
18225;DHT22;9237;48.590;8.854;2022-07-06T04:03:30;13.70;99.90
18225;DHT22;9237;48.590;8.854;2022-07-06T04:05:57;13.60;99.90
18225;DHT22;9237;48.590;8.854;2022-07-06T04:08:24;13.80;99.90
18225;DHT22;9237;48.590;8.854;2022-07-06T04:10:52;13.70;99.90
18225;DHT22;9237;48.590;8.854;2022-07-06T04:13:19;13.70;99.90
18225;DHT22;9237;48.590;8.854;2022-07-06T04:15:46;13.70;99.90
18225;DHT22;9237;48.590;8.854;2022-07-06T04:18:13;13.70;99.90
18225;DHT22;9237;48.590;8.854;2022-07-06T04:20:40;13.60;99.90
18225;DHT22;9237;48.590;8.854;2022-07-06T04:23:07;13.70;99.90
18225;DHT22;9237;48.590;8.854;2022-07-06T04:25:34;13.80;99.90
18225;DHT22;9237;48.590;8.854;2022-07-06T04:28:02;13.70;99.90
18225;DHT22;9237;48.590;8.854;2022-07-06T04:30:29;13.70;99.90
18225;DHT22;9237;48.590;8.854;2022-07-06T04:32:56;13.80;99.90
18225;DHT22;9237;48.590;8.854;2022-07-06T04:35:23;13.80;99.90
18225;DHT22;9237;48.590;8.854;2022-07-06T04:37:50;14.00;99.90
18225;DHT22;9237;48.590;8.854;2022-07-06T04:40:17;14.00;99.90
18225;DHT22;9237;48.590;8.854;2022-07-06T04:42:44;14.10;99.90
18225;DHT22;9237;48.590;8.854;2022-07-06T04:45:13;14.20;99.90
18225;DHT22;9237;48.590;8.854;2022-07-06T04:47:39;14.30;99.90
18225;DHT22;9237;48.590;8.854;2022-07-06T04:50:07;14.40;99.90
18225;DHT22;9237;48.590;8.854;2022-07-06T04:52:34;14.50;99.90
18225;DHT22;9237;48.590;8.854;2022-07-06T04:55:01;14.60;99.90
18225;DHT22;9237;48.590;8.854;2022-07-06T04:57:30;14.70;99.90
18225;DHT22;9237;48.590;8.854;2022-07-06T04:59:56;14.80;99.90
18225;DHT22;9237;48.590;8.854;2022-07-06T05:02:25;14.90;99.90
18225;DHT22;9237;48.590;8.854;2022-07-06T05:04:51;15.10;99.90
18225;DHT22;9237;48.590;8.854;2022-07-06T05:07:19;15.20;99.90
18225;DHT22;9237;48.590;8.854;2022-07-06T05:09:46;15.40;99.90
18225;DHT22;9237;48.590;8.854;2022-07-06T05:12:12;15.80;99.90
18225;DHT22;9237;48.590;8.854;2022-07-06T05:14:39;16.20;99.90
18225;DHT22;9237;48.590;8.854;2022-07-06T05:17:06;16.60;99.90
18225;DHT22;9237;48.590;8.854;2022-07-06T05:19:34;16.80;99.90
18225;DHT22;9237;48.590;8.854;2022-07-06T05:22:01;17.00;99.90
18225;DHT22;9237;48.590;8.854;2022-07-06T05:24:28;17.00;99.90
18225;DHT22;9237;48.590;8.854;2022-07-06T05:26:55;17.00;99.90
18225;DHT22;9237;48.590;8.854;2022-07-06T05:29:22;17.10;99.90
18225;DHT22;9237;48.590;8.854;2022-07-06T05:31:49;17.00;99.90
18225;DHT22;9237;48.590;8.854;2022-07-06T05:34:16;17.00;99.90
18225;DHT22;9237;48.590;8.854;2022-07-06T05:36:45;17.20;99.90
18225;DHT22;9237;48.590;8.854;2022-07-06T05:39:11;17.40;99.90
18225;DHT22;9237;48.590;8.854;2022-07-06T05:41:38;17.70;99.90
18225;DHT22;9237;48.590;8.854;2022-07-06T05:44:05;17.70;99.90
18225;DHT22;9237;48.590;8.854;2022-07-06T05:46:32;17.60;99.90
18225;DHT22;9237;48.590;8.854;2022-07-06T05:48:59;17.60;99.90
18225;DHT22;9237;48.590;8.854;2022-07-06T05:51:45;17.70;99.90
18225;DHT22;9237;48.590;8.854;2022-07-06T05:54:12;17.70;99.90
18225;DHT22;9237;48.590;8.854;2022-07-06T05:56:38;17.90;99.90
18225;DHT22;9237;48.590;8.854;2022-07-06T05:59:05;18.20;99.90
18225;DHT22;9237;48.590;8.854;2022-07-06T06:01:32;18.30;99.90
18225;DHT22;9237;48.590;8.854;2022-07-06T06:03:59;18.50;99.90
18225;DHT22;9237;48.590;8.854;2022-07-06T06:06:26;18.20;99.90
18225;DHT22;9237;48.590;8.854;2022-07-06T06:08:55;18.10;99.90
18225;DHT22;9237;48.590;8.854;2022-07-06T06:11:21;18.30;99.90
18225;DHT22;9237;48.590;8.854;2022-07-06T06:13:48;18.20;99.90
18225;DHT22;9237;48.590;8.854;2022-07-06T06:16:15;18.40;99.90
18225;DHT22;9237;48.590;8.854;2022-07-06T06:18:42;18.20;99.90
18225;DHT22;9237;48.590;8.854;2022-07-06T06:21:09;18.30;99.90
18225;DHT22;9237;48.590;8.854;2022-07-06T06:23:36;18.70;99.90
18225;DHT22;9237;48.590;8.854;2022-07-06T06:26:05;19.10;99.90
18225;DHT22;9237;48.590;8.854;2022-07-06T06:28:32;19.30;99.90
18225;DHT22;9237;48.590;8.854;2022-07-06T06:30:59;19.50;99.90
18225;DHT22;9237;48.590;8.854;2022-07-06T06:33:26;19.70;99.90
18225;DHT22;9237;48.590;8.854;2022-07-06T06:35:53;19.70;99.90
18225;DHT22;9237;48.590;8.854;2022-07-06T06:38:22;20.00;99.90
18225;DHT22;9237;48.590;8.854;2022-07-06T06:40:51;20.40;98.90
18225;DHT22;9237;48.590;8.854;2022-07-06T06:43:20;20.30;98.60
18225;DHT22;9237;48.590;8.854;2022-07-06T06:45:47;20.50;98.70
18225;DHT22;9237;48.590;8.854;2022-07-06T06:48:14;20.60;97.90
18225;DHT22;9237;48.590;8.854;2022-07-06T06:50:40;20.40;97.10
18225;DHT22;9237;48.590;8.854;2022-07-06T06:53:07;20.70;97.10
18225;DHT22;9237;48.590;8.854;2022-07-06T06:55:34;20.50;97.40
18225;DHT22;9237;48.590;8.854;2022-07-06T06:58:01;20.60;97.20
18225;DHT22;9237;48.590;8.854;2022-07-06T07:00:30;20.40;95.90
18225;DHT22;9237;48.590;8.854;2022-07-06T07:02:57;20.30;96.00
18225;DHT22;9237;48.590;8.854;2022-07-06T07:05:23;20.80;96.30
18225;DHT22;9237;48.590;8.854;2022-07-06T07:07:50;21.00;96.00
18225;DHT22;9237;48.590;8.854;2022-07-06T07:10:17;20.90;94.60
18225;DHT22;9237;48.590;8.854;2022-07-06T07:12:45;21.00;95.40
18225;DHT22;9237;48.590;8.854;2022-07-06T07:15:12;21.10;94.50
18225;DHT22;9237;48.590;8.854;2022-07-06T07:17:40;20.80;94.30
18225;DHT22;9237;48.590;8.854;2022-07-06T07:20:08;20.80;93.70
18225;DHT22;9237;48.590;8.854;2022-07-06T07:22:35;20.40;95.10
18225;DHT22;9237;48.590;8.854;2022-07-06T07:25:02;20.70;94.80
18225;DHT22;9237;48.590;8.854;2022-07-06T07:27:29;21.00;94.40
18225;DHT22;9237;48.590;8.854;2022-07-06T07:29:56;21.00;93.70
18225;DHT22;9237;48.590;8.854;2022-07-06T07:32:23;21.30;93.50
18225;DHT22;9237;48.590;8.854;2022-07-06T07:34:51;21.40;93.50
18225;DHT22;9237;48.590;8.854;2022-07-06T07:37:18;22.20;93.50
18225;DHT22;9237;48.590;8.854;2022-07-06T07:39:45;22.60;90.90
18225;DHT22;9237;48.590;8.854;2022-07-06T07:42:12;22.60;91.20
18225;DHT22;9237;48.590;8.854;2022-07-06T07:44:39;22.40;90.60
18225;DHT22;9237;48.590;8.854;2022-07-06T07:47:06;21.60;91.90
18225;DHT22;9237;48.590;8.854;2022-07-06T07:49:33;22.10;91.30
18225;DHT22;9237;48.590;8.854;2022-07-06T07:52:02;22.70;90.40
18225;DHT22;9237;48.590;8.854;2022-07-06T07:54:28;23.10;90.90
18225;DHT22;9237;48.590;8.854;2022-07-06T07:56:55;23.20;87.80
18225;DHT22;9237;48.590;8.854;2022-07-06T07:59:22;23.00;88.20
18225;DHT22;9237;48.590;8.854;2022-07-06T08:01:49;22.80;87.50
18225;DHT22;9237;48.590;8.854;2022-07-06T08:04:16;23.00;87.50
18225;DHT22;9237;48.590;8.854;2022-07-06T08:06:43;23.30;85.40
18225;DHT22;9237;48.590;8.854;2022-07-06T08:09:11;23.40;87.00
18225;DHT22;9237;48.590;8.854;2022-07-06T08:11:38;23.00;85.90
18225;DHT22;9237;48.590;8.854;2022-07-06T08:14:05;22.70;85.20
18225;DHT22;9237;48.590;8.854;2022-07-06T08:16:32;23.00;83.80
18225;DHT22;9237;48.590;8.854;2022-07-06T08:18:59;22.60;84.60
18225;DHT22;9237;48.590;8.854;2022-07-06T08:21:26;23.00;84.00
18225;DHT22;9237;48.590;8.854;2022-07-06T08:23:54;23.40;83.90
18225;DHT22;9237;48.590;8.854;2022-07-06T08:26:23;24.40;82.30
18225;DHT22;9237;48.590;8.854;2022-07-06T08:28:50;25.40;79.70
18225;DHT22;9237;48.590;8.854;2022-07-06T08:31:17;24.80;78.20
18225;DHT22;9237;48.590;8.854;2022-07-06T08:33:44;24.00;79.80
18225;DHT22;9237;48.590;8.854;2022-07-06T08:36:12;24.30;82.50
18225;DHT22;9237;48.590;8.854;2022-07-06T08:38:39;24.00;79.70
18225;DHT22;9237;48.590;8.854;2022-07-06T08:41:06;24.00;81.60
18225;DHT22;9237;48.590;8.854;2022-07-06T08:43:35;24.10;80.00
18225;DHT22;9237;48.590;8.854;2022-07-06T08:46:02;24.30;81.10
18225;DHT22;9237;48.590;8.854;2022-07-06T08:48:36;23.40;81.70
18225;DHT22;9237;48.590;8.854;2022-07-06T08:51:04;24.80;78.60
18225;DHT22;9237;48.590;8.854;2022-07-06T08:53:31;25.10;74.30
18225;DHT22;9237;48.590;8.854;2022-07-06T08:55:59;24.90;75.70
18225;DHT22;9237;48.590;8.854;2022-07-06T08:58:27;25.90;72.00
18225;DHT22;9237;48.590;8.854;2022-07-06T09:00:56;25.30;74.70
18225;DHT22;9237;48.590;8.854;2022-07-06T09:03:23;25.00;74.10
18225;DHT22;9237;48.590;8.854;2022-07-06T09:05:50;24.50;77.00
18225;DHT22;9237;48.590;8.854;2022-07-06T09:08:19;24.90;73.50
18225;DHT22;9237;48.590;8.854;2022-07-06T09:10:47;25.20;74.00
18225;DHT22;9237;48.590;8.854;2022-07-06T09:13:14;25.00;72.70
18225;DHT22;9237;48.590;8.854;2022-07-06T09:15:40;25.80;76.20
18225;DHT22;9237;48.590;8.854;2022-07-06T09:18:09;25.40;71.20
18225;DHT22;9237;48.590;8.854;2022-07-06T09:20:36;25.00;74.20
18225;DHT22;9237;48.590;8.854;2022-07-06T09:23:04;26.10;75.40
18225;DHT22;9237;48.590;8.854;2022-07-06T09:25:32;25.30;73.60
18225;DHT22;9237;48.590;8.854;2022-07-06T09:28:01;26.30;74.70
18225;DHT22;9237;48.590;8.854;2022-07-06T09:30:29;27.40;71.00
18225;DHT22;9237;48.590;8.854;2022-07-06T09:32:56;28.10;68.10
18225;DHT22;9237;48.590;8.854;2022-07-06T09:35:26;28.70;66.50
18225;DHT22;9237;48.590;8.854;2022-07-06T09:38:01;29.00;62.60
18225;DHT22;9237;48.590;8.854;2022-07-06T09:40:30;27.90;65.00
18225;DHT22;9237;48.590;8.854;2022-07-06T09:43:10;27.60;64.80
18225;DHT22;9237;48.590;8.854;2022-07-06T09:45:38;27.20;67.10
18225;DHT22;9237;48.590;8.854;2022-07-06T09:48:07;27.50;67.20
18225;DHT22;9237;48.590;8.854;2022-07-06T09:50:46;28.70;66.40
18225;DHT22;9237;48.590;8.854;2022-07-06T09:53:13;29.90;63.10
18225;DHT22;9237;48.590;8.854;2022-07-06T09:55:43;30.50;58.80
18225;DHT22;9237;48.590;8.854;2022-07-06T09:58:10;29.60;59.30
18225;DHT22;9237;48.590;8.854;2022-07-06T10:00:37;28.40;60.80
18225;DHT22;9237;48.590;8.854;2022-07-06T10:03:05;27.30;63.30
18225;DHT22;9237;48.590;8.854;2022-07-06T10:05:32;26.90;64.30
18225;DHT22;9237;48.590;8.854;2022-07-06T10:08:01;26.50;68.90
18225;DHT22;9237;48.590;8.854;2022-07-06T10:10:32;26.50;67.50
18225;DHT22;9237;48.590;8.854;2022-07-06T10:12:59;26.00;68.20
18225;DHT22;9237;48.590;8.854;2022-07-06T10:15:28;27.10;68.20
18225;DHT22;9237;48.590;8.854;2022-07-06T10:17:58;25.80;65.80
18225;DHT22;9237;48.590;8.854;2022-07-06T10:20:28;25.10;68.40
18225;DHT22;9237;48.590;8.854;2022-07-06T10:23:00;25.60;69.10
18225;DHT22;9237;48.590;8.854;2022-07-06T10:25:28;24.60;73.00
18225;DHT22;9237;48.590;8.854;2022-07-06T10:27:55;25.30;71.20
18225;DHT22;9237;48.590;8.854;2022-07-06T10:30:23;24.90;70.20
18225;DHT22;9237;48.590;8.854;2022-07-06T10:32:51;24.90;73.30
18225;DHT22;9237;48.590;8.854;2022-07-06T10:35:19;26.10;69.80
18225;DHT22;9237;48.590;8.854;2022-07-06T10:38:04;25.70;68.60
18225;DHT22;9237;48.590;8.854;2022-07-06T10:40:32;26.00;69.00
18225;DHT22;9237;48.590;8.854;2022-07-06T10:43:17;26.40;70.50
18225;DHT22;9237;48.590;8.854;2022-07-06T10:45:51;26.10;70.60
18225;DHT22;9237;48.590;8.854;2022-07-06T10:48:19;25.70;69.70
18225;DHT22;9237;48.590;8.854;2022-07-06T10:50:49;25.00;72.10
18225;DHT22;9237;48.590;8.854;2022-07-06T10:53:21;24.50;74.10
18225;DHT22;9237;48.590;8.854;2022-07-06T10:55:50;24.20;75.20
18225;DHT22;9237;48.590;8.854;2022-07-06T10:58:35;23.80;77.20
18225;DHT22;9237;48.590;8.854;2022-07-06T11:01:03;23.20;78.60
18225;DHT22;9237;48.590;8.854;2022-07-06T11:03:39;23.00;82.80
18225;DHT22;9237;48.590;8.854;2022-07-06T11:06:10;23.00;78.50
18225;DHT22;9237;48.590;8.854;2022-07-06T11:08:53;22.80;79.80
18225;DHT22;9237;48.590;8.854;2022-07-06T11:11:23;23.20;80.50
18225;DHT22;9237;48.590;8.854;2022-07-06T11:13:55;23.90;78.40
18225;DHT22;9237;48.590;8.854;2022-07-06T11:16:23;23.70;77.50
18225;DHT22;9237;48.590;8.854;2022-07-06T11:19:07;23.70;77.60
18225;DHT22;9237;48.590;8.854;2022-07-06T11:21:46;24.00;79.10
18225;DHT22;9237;48.590;8.854;2022-07-06T11:24:16;25.40;75.80
18225;DHT22;9237;48.590;8.854;2022-07-06T11:26:44;25.40;74.00
18225;DHT22;9237;48.590;8.854;2022-07-06T11:29:12;24.80;75.90
18225;DHT22;9237;48.590;8.854;2022-07-06T11:31:41;23.90;76.70
18225;DHT22;9237;48.590;8.854;2022-07-06T11:34:10;23.30;80.40
18225;DHT22;9237;48.590;8.854;2022-07-06T11:36:38;24.20;78.10
18225;DHT22;9237;48.590;8.854;2022-07-06T11:39:06;25.50;74.80
18225;DHT22;9237;48.590;8.854;2022-07-06T11:41:35;25.10;73.80
18225;DHT22;9237;48.590;8.854;2022-07-06T11:44:03;25.00;74.90
18225;DHT22;9237;48.590;8.854;2022-07-06T11:46:32;24.80;74.70
18225;DHT22;9237;48.590;8.854;2022-07-06T11:49:01;24.60;74.80
18225;DHT22;9237;48.590;8.854;2022-07-06T11:51:29;24.40;74.70
18225;DHT22;9237;48.590;8.854;2022-07-06T11:53:58;23.60;77.20
18225;DHT22;9237;48.590;8.854;2022-07-06T11:56:26;23.60;78.30
18225;DHT22;9237;48.590;8.854;2022-07-06T11:58:57;24.20;77.90
18225;DHT22;9237;48.590;8.854;2022-07-06T12:01:25;24.40;77.00
18225;DHT22;9237;48.590;8.854;2022-07-06T12:03:53;23.70;77.60
18225;DHT22;9237;48.590;8.854;2022-07-06T12:06:22;23.30;80.30
18225;DHT22;9237;48.590;8.854;2022-07-06T12:08:50;23.50;80.00
18225;DHT22;9237;48.590;8.854;2022-07-06T12:11:19;24.80;76.20
18225;DHT22;9237;48.590;8.854;2022-07-06T12:13:47;25.10;75.70
18225;DHT22;9237;48.590;8.854;2022-07-06T12:16:15;24.50;76.20
18225;DHT22;9237;48.590;8.854;2022-07-06T12:18:44;24.50;78.10
18225;DHT22;9237;48.590;8.854;2022-07-06T12:21:13;24.70;77.30
18225;DHT22;9237;48.590;8.854;2022-07-06T12:23:44;24.80;76.00
18225;DHT22;9237;48.590;8.854;2022-07-06T12:26:12;24.90;74.50
18225;DHT22;9237;48.590;8.854;2022-07-06T12:28:40;24.50;75.10
18225;DHT22;9237;48.590;8.854;2022-07-06T12:31:07;25.00;79.20
18225;DHT22;9237;48.590;8.854;2022-07-06T12:33:35;24.00;78.50
18225;DHT22;9237;48.590;8.854;2022-07-06T12:36:10;25.20;75.80
18225;DHT22;9237;48.590;8.854;2022-07-06T12:38:44;26.10;73.20
18225;DHT22;9237;48.590;8.854;2022-07-06T12:41:23;27.20;69.90
18225;DHT22;9237;48.590;8.854;2022-07-06T12:44:00;26.90;68.90
18225;DHT22;9237;48.590;8.854;2022-07-06T12:46:28;26.50;69.90
18225;DHT22;9237;48.590;8.854;2022-07-06T12:49:00;27.20;69.40
18225;DHT22;9237;48.590;8.854;2022-07-06T12:51:27;27.20;67.40
18225;DHT22;9237;48.590;8.854;2022-07-06T12:54:12;26.30;69.30
18225;DHT22;9237;48.590;8.854;2022-07-06T12:57:04;26.80;68.10
18225;DHT22;9237;48.590;8.854;2022-07-06T12:59:34;26.10;69.00
18225;DHT22;9237;48.590;8.854;2022-07-06T13:02:01;26.80;67.50
18225;DHT22;9237;48.590;8.854;2022-07-06T13:04:32;27.30;67.90
18225;DHT22;9237;48.590;8.854;2022-07-06T13:07:00;27.20;66.30
18225;DHT22;9237;48.590;8.854;2022-07-06T13:09:28;28.00;63.40
18225;DHT22;9237;48.590;8.854;2022-07-06T13:11:55;27.10;65.70
18225;DHT22;9237;48.590;8.854;2022-07-06T13:14:22;27.50;67.10
18225;DHT22;9237;48.590;8.854;2022-07-06T13:16:49;28.30;64.30
18225;DHT22;9237;48.590;8.854;2022-07-06T13:19:16;28.80;61.30
18225;DHT22;9237;48.590;8.854;2022-07-06T13:21:44;29.50;59.90
18225;DHT22;9237;48.590;8.854;2022-07-06T13:24:11;29.50;60.90
18225;DHT22;9237;48.590;8.854;2022-07-06T13:26:39;30.00;59.30
18225;DHT22;9237;48.590;8.854;2022-07-06T13:29:05;29.80;59.20
18225;DHT22;9237;48.590;8.854;2022-07-06T13:31:32;29.40;58.90
18225;DHT22;9237;48.590;8.854;2022-07-06T13:33:59;29.50;58.00
18225;DHT22;9237;48.590;8.854;2022-07-06T13:36:26;29.50;58.20
18225;DHT22;9237;48.590;8.854;2022-07-06T13:38:55;28.60;59.10
18225;DHT22;9237;48.590;8.854;2022-07-06T13:41:22;28.50;60.80
18225;DHT22;9237;48.590;8.854;2022-07-06T13:43:49;28.30;61.40
18225;DHT22;9237;48.590;8.854;2022-07-06T13:46:16;27.60;61.70
18225;DHT22;9237;48.590;8.854;2022-07-06T13:48:44;27.70;62.10
18225;DHT22;9237;48.590;8.854;2022-07-06T13:51:11;27.90;62.90
18225;DHT22;9237;48.590;8.854;2022-07-06T13:53:38;29.00;59.50
18225;DHT22;9237;48.590;8.854;2022-07-06T13:56:06;29.20;59.50
18225;DHT22;9237;48.590;8.854;2022-07-06T13:58:33;28.20;60.30
18225;DHT22;9237;48.590;8.854;2022-07-06T14:01:00;27.10;63.30
18225;DHT22;9237;48.590;8.854;2022-07-06T14:03:27;27.10;63.00
18225;DHT22;9237;48.590;8.854;2022-07-06T14:05:56;27.70;63.90
18225;DHT22;9237;48.590;8.854;2022-07-06T14:08:23;27.90;63.90
18225;DHT22;9237;48.590;8.854;2022-07-06T14:10:50;28.30;60.70
18225;DHT22;9237;48.590;8.854;2022-07-06T14:13:18;28.30;60.00
18225;DHT22;9237;48.590;8.854;2022-07-06T14:15:46;28.60;59.80
18225;DHT22;9237;48.590;8.854;2022-07-06T14:18:13;28.90;58.20
18225;DHT22;9237;48.590;8.854;2022-07-06T14:20:42;28.00;59.60
18225;DHT22;9237;48.590;8.854;2022-07-06T14:23:09;27.60;61.20
18225;DHT22;9237;48.590;8.854;2022-07-06T14:25:37;27.20;61.30
18225;DHT22;9237;48.590;8.854;2022-07-06T14:28:04;27.60;61.40
18225;DHT22;9237;48.590;8.854;2022-07-06T14:30:33;27.70;61.60
18225;DHT22;9237;48.590;8.854;2022-07-06T14:33:02;27.60;59.80
18225;DHT22;9237;48.590;8.854;2022-07-06T14:35:33;26.80;64.50
18225;DHT22;9237;48.590;8.854;2022-07-06T14:38:04;27.30;62.40
18225;DHT22;9237;48.590;8.854;2022-07-06T14:40:32;27.50;59.90
18225;DHT22;9237;48.590;8.854;2022-07-06T14:43:08;26.90;62.40
18225;DHT22;9237;48.590;8.854;2022-07-06T14:45:37;26.60;64.90
18225;DHT22;9237;48.590;8.854;2022-07-06T14:48:05;26.60;63.10
18225;DHT22;9237;48.590;8.854;2022-07-06T14:50:32;26.60;64.10
18225;DHT22;9237;48.590;8.854;2022-07-06T14:53:00;26.50;62.80
18225;DHT22;9237;48.590;8.854;2022-07-06T14:55:27;26.80;63.00
18225;DHT22;9237;48.590;8.854;2022-07-06T14:57:54;27.30;60.10
18225;DHT22;9237;48.590;8.854;2022-07-06T15:00:22;27.20;61.00
18225;DHT22;9237;48.590;8.854;2022-07-06T15:02:50;27.40;60.40
18225;DHT22;9237;48.590;8.854;2022-07-06T15:05:17;26.20;61.00
18225;DHT22;9237;48.590;8.854;2022-07-06T15:07:44;25.90;64.60
18225;DHT22;9237;48.590;8.854;2022-07-06T15:10:13;26.30;63.80
18225;DHT22;9237;48.590;8.854;2022-07-06T15:12:40;25.90;64.80
18225;DHT22;9237;48.590;8.854;2022-07-06T15:15:08;25.50;66.00
18225;DHT22;9237;48.590;8.854;2022-07-06T15:17:35;25.20;65.80
18225;DHT22;9237;48.590;8.854;2022-07-06T15:20:03;25.10;69.60
18225;DHT22;9237;48.590;8.854;2022-07-06T15:22:30;24.60;68.30
18225;DHT22;9237;48.590;8.854;2022-07-06T15:24:58;24.80;70.00
18225;DHT22;9237;48.590;8.854;2022-07-06T15:27:25;24.80;68.30
18225;DHT22;9237;48.590;8.854;2022-07-06T15:29:52;24.80;66.40
18225;DHT22;9237;48.590;8.854;2022-07-06T15:32:22;25.10;64.90
18225;DHT22;9237;48.590;8.854;2022-07-06T15:34:49;24.80;66.40
18225;DHT22;9237;48.590;8.854;2022-07-06T15:37:18;24.90;65.60
18225;DHT22;9237;48.590;8.854;2022-07-06T15:39:45;25.50;64.00
18225;DHT22;9237;48.590;8.854;2022-07-06T15:42:12;25.80;63.60
18225;DHT22;9237;48.590;8.854;2022-07-06T15:44:39;26.60;61.90
18225;DHT22;9237;48.590;8.854;2022-07-06T15:47:07;26.00;61.90
18225;DHT22;9237;48.590;8.854;2022-07-06T15:49:34;26.60;62.10
18225;DHT22;9237;48.590;8.854;2022-07-06T15:52:01;26.70;60.60